Terminal Aerodrome Forecast
Issued by NWS Sterling, VA

Current Version | Previous Version | Graphics & Text | Print | Product List | Glossary On
Versions: 1 2 3 4 5 6 7 8 9 10 11 12 13 14 15 16 17 18 19 20 21 22 23 24 25
000
FTUS41 KLWX 261737
TAFIAD
TAF
KIAD 261737Z 2618/2724 19010KT P6SM SCT050 BKN090
     FM262100 19008G16KT P6SM VCTS BKN050CB BKN100
     FM262300 23005KT P6SM SCT050 OVC090
     FM270300 14004KT P6SM SCT050 OVC090
     FM271000 19008KT P6SM SCT015 BKN090
     FM271600 21008KT P6SM -SHRA BKN090 BKN100=

USA.gov is the U.S. government's official web portal to all federal, state and local government web resources and services.